Terminal Aerodrome Forecast
Issued by NWS

Home | Current Version | Previous Version | Text Only | Print | Product List | Glossary Off
Versions: 1 2 3 4 5 6 7 8 9 10 11 12 13 14 15

000
FTUS43 KICT 291100
TAFCNU
TAF
KCNU 291120Z 2912/3012 VRB03KT P6SM SKC
      TEMPO 2912/2914 3SM BR
     FM291700 17005KT P6SM BKN060
     FM300000 VRB03KT P6SM SCT060
     FM300600 VRB03KT P6SM SCT060 BKN200=

USA.gov is the U.S. government's official web portal to all federal, state and local government web resources and services.